Terminal Aerodrome Forecast
Issued by NWS

Home | Current Version | Previous Version | Text Only | Print | Product List | Glossary On
Versions: 1 2 3 4 5 6 7 8 9 10 11 12 13 14 15 16 17
000
FTUS46 KSGX 180520
TAFCRQ
TAF
KCRQ 180520Z 1806/1906 VRB04KT P6SM FEW011
     FM180630 VRB02KT P6SM BKN010
     FM181600 VRB04KT P6SM SCT012
     FM181900 25009KT P6SM SKC
     FM190100 VRB05KT P6SM SCT013
     FM190500 VRB03KT P6SM BKN011=

USA.gov is the U.S. government's official web portal to all federal, state and local government web resources and services.